createdAt,value
2022-09-26T00:05:21.312Z,5.70
2022-09-26T00:15:26.190Z,5.90
2022-09-26T00:25:29.421Z,6.20
2022-09-26T00:35:34.003Z,6.30
2022-09-26T00:45:37.299Z,6.20
2022-09-26T00:55:47.396Z,6.10
2022-09-26T01:05:51.218Z,6.10
2022-09-26T01:15:55.893Z,6.50
2022-09-26T01:26:24.027Z,6.40
2022-09-26T01:36:58.808Z,6.10
2022-09-26T01:47:13.092Z,5.90
2022-09-26T01:57:27.693Z,5.80
2022-09-26T02:07:37.843Z,5.90
2022-09-26T02:17:47.692Z,6.10
2022-09-26T02:27:51.304Z,6.30
2022-09-26T02:37:56.027Z,6.70
2022-09-26T02:48:19.748Z,7.00
2022-09-26T02:58:36.247Z,7.20
2022-09-26T03:08:45.253Z,7.30
2022-09-26T03:18:56.581Z,7.20
2022-09-26T03:29:00.104Z,7.00
2022-09-26T03:39:07.792Z,6.80
2022-09-26T03:49:17.474Z,6.60
2022-09-26T03:59:22.348Z,6.50
2022-09-26T04:09:27.568Z,6.50
2022-09-26T04:19:33.753Z,6.80
2022-09-26T04:29:37.906Z,7.00
2022-09-26T04:39:48.950Z,7.20
2022-09-26T04:49:52.587Z,7.30
2022-09-26T04:59:57.791Z,7.50
2022-09-26T05:10:01.096Z,7.60
2022-09-26T05:20:09.108Z,7.80
2022-09-26T05:30:31.360Z,7.90
2022-09-26T05:40:54.345Z,8.20
2022-09-26T05:51:04.960Z,8.50
2022-09-26T06:01:11.815Z,8.70
2022-09-26T06:11:17.602Z,8.90
2022-09-26T06:21:22.757Z,8.90
2022-09-26T06:31:34.490Z,9.20
2022-09-26T06:41:48.181Z,9.60
2022-09-26T06:52:12.032Z,10.20
2022-09-26T07:02:17.055Z,11.00
2022-09-26T07:12:47.259Z,11.00
2022-09-26T07:22:53.678Z,11.40
2022-09-26T07:33:01.141Z,12.50
2022-09-26T07:43:20.007Z,13.80
2022-09-26T07:53:27.426Z,14.00
2022-09-26T08:04:13.397Z,13.90
2022-09-26T08:14:17.818Z,13.60
2022-09-26T08:24:35.838Z,13.30
2022-09-26T08:34:57.704Z,12.90
2022-09-26T08:45:55.121Z,12.50
2022-09-26T08:56:18.613Z,12.20
2022-09-26T09:06:28.641Z,12.00
2022-09-26T09:16:55.937Z,12.00
2022-09-26T09:37:55.149Z,12.00
2022-09-26T09:48:14.810Z,12.00
2022-09-26T09:58:41.481Z,12.30
2022-09-26T10:08:46.601Z,12.70
2022-09-26T10:19:10.392Z,12.90
2022-09-26T10:29:25.972Z,13.10
2022-09-26T10:39:49.356Z,13.40
2022-09-26T10:49:59.414Z,13.70
2022-09-26T11:00:37.615Z,14.10
2022-09-26T11:10:49.372Z,15.20
2022-09-26T11:21:28.622Z,17.70
2022-09-26T11:31:41.062Z,25.90
2022-09-26T11:42:25.947Z,26.50
2022-09-26T11:52:54.485Z,28.60
2022-09-26T12:03:23.338Z,29.50
2022-09-26T12:13:42.478Z,28.20
2022-09-26T12:23:51.697Z,27.30
2022-09-26T12:34:29.888Z,25.20
2022-09-26T12:45:01.046Z,23.20
2022-09-26T12:55:20.969Z,34.20
2022-09-26T13:06:08.967Z,28.80
2022-09-26T13:16:31.843Z,30.80
2022-09-26T13:26:43.809Z,35.60
2022-09-26T13:36:49.865Z,39.90
2022-09-26T13:47:06.786Z,34.30
2022-09-26T14:08:10.887Z,33.60
2022-09-26T14:18:34.833Z,36.90
2022-09-26T14:28:41.561Z,29.90
2022-09-26T14:38:48.628Z,23.90
2022-09-26T14:49:01.421Z,21.20
2022-09-26T14:59:40.925Z,20.00
2022-09-26T15:09:51.179Z,19.00
2022-09-26T15:19:58.940Z,18.50
2022-09-26T15:30:17.427Z,17.40
2022-09-26T15:40:23.915Z,15.90
2022-09-26T15:50:35.590Z,14.60
2022-09-26T16:00:43.866Z,13.70
2022-09-26T16:10:55.415Z,12.90
2022-09-26T16:21:20.018Z,12.30
2022-09-26T16:31:47.970Z,11.90
2022-09-26T16:42:02.712Z,11.70
2022-09-26T16:52:26.878Z,11.80
2022-09-26T17:02:30.739Z,11.80
2022-09-26T17:12:35.592Z,11.70
2022-09-26T17:22:39.126Z,11.60
2022-09-26T17:32:49.717Z,11.60
2022-09-26T17:42:55.512Z,11.50
2022-09-26T17:53:03.255Z,11.10
2022-09-26T18:03:15.670Z,10.70
2022-09-26T18:13:26.757Z,10.10
2022-09-26T18:23:39.611Z,10.00
2022-09-26T18:33:44.397Z,10.00
2022-09-26T18:43:51.183Z,9.70
2022-09-26T18:53:55.929Z,9.60
2022-09-26T19:04:04.587Z,9.60
2022-09-26T19:14:15.755Z,9.30
2022-09-26T19:24:27.939Z,8.80
2022-09-26T19:34:33.417Z,8.30
2022-09-26T19:44:36.795Z,8.00
2022-09-26T19:54:41.565Z,7.70
2022-09-26T20:04:45.657Z,7.50
2022-09-26T20:14:50.391Z,7.50
2022-09-26T20:24:55.845Z,7.50
2022-09-26T20:35:01.526Z,7.70
2022-09-26T20:45:06.098Z,7.70
2022-09-26T20:55:16.720Z,7.70
2022-09-26T21:05:24.592Z,7.70
2022-09-26T21:15:32.147Z,7.80
2022-09-26T21:25:35.512Z,7.70
2022-09-26T21:35:40.853Z,7.50
2022-09-26T21:45:46.507Z,7.10
2022-09-26T21:55:55.230Z,6.80
2022-09-26T22:05:59.301Z,6.60
2022-09-26T22:16:11.620Z,6.40
2022-09-26T22:26:14.925Z,6.30
2022-09-26T22:36:19.629Z,6.10
2022-09-26T22:46:23.029Z,5.80
2022-09-26T22:56:27.884Z,5.50
2022-09-26T23:06:33.065Z,5.30
2022-09-26T23:16:38.530Z,5.10
2022-09-26T23:26:41.862Z,4.80
2022-09-26T23:36:46.555Z,4.60
2022-09-26T23:46:49.855Z,4.50
2022-09-26T23:56:54.585Z,4.20
